createdAt,value
2022-11-24T00:00:34.334Z,99347.63
2022-11-24T00:03:37.074Z,99346.84
2022-11-24T00:06:39.780Z,99348.19
2022-11-24T00:09:42.965Z,99356.19
2022-11-24T00:12:45.352Z,99353.56
2022-11-24T00:15:48.373Z,99360.59
2022-11-24T00:18:53.245Z,99359.81
2022-11-24T00:21:56.071Z,99361.69
2022-11-24T00:24:58.727Z,99358.25
2022-11-24T00:28:01.552Z,99373.28
2022-11-24T00:31:05.920Z,99367.25
2022-11-24T00:34:13.929Z,99381.19
2022-11-24T00:37:16.702Z,99374.84
2022-11-24T00:40:19.483Z,99381.50
2022-11-24T00:43:22.218Z,99390.19
2022-11-24T00:46:25.027Z,99394.88
2022-11-24T00:49:27.721Z,99390.69
2022-11-24T00:52:30.742Z,99382.19
2022-11-24T00:55:33.550Z,99381.91
2022-11-24T00:58:37.848Z,99378.78
2022-11-24T01:01:42.011Z,99376.91
2022-11-24T01:04:44.813Z,99372.22
2022-11-24T01:07:47.546Z,99377.09
2022-11-24T01:10:50.719Z,99378.16
2022-11-24T01:13:58.745Z,99380.50
2022-11-24T01:17:01.456Z,99379.84
2022-11-24T01:20:04.759Z,99379.53
2022-11-24T01:23:08.184Z,99382.34
2022-11-24T01:26:13.870Z,99387.44
2022-11-24T01:29:17.119Z,99389.88
2022-11-24T01:32:19.730Z,99388.41
2022-11-24T01:35:22.259Z,99388.69
2022-11-24T01:38:25.638Z,99395.16
2022-11-24T01:41:28.482Z,99395.81
2022-11-24T01:44:31.931Z,99384.22
2022-11-24T01:47:40.930Z,99387.63
2022-11-24T01:50:44.138Z,99394.47
2022-11-24T01:53:54.304Z,99397.09
2022-11-24T01:57:02.422Z,99388.91
2022-11-24T02:00:08.667Z,99397.09
2022-11-24T02:03:26.369Z,99401.22
2022-11-24T02:06:31.702Z,99394.38
2022-11-24T02:09:49.047Z,99393.59
2022-11-24T02:12:55.209Z,99403.44
2022-11-24T02:15:57.832Z,99396.53
2022-11-24T02:19:00.777Z,99400.53
2022-11-24T02:22:04.458Z,99404.53
2022-11-24T02:25:34.137Z,99405.41
2022-11-24T02:28:37.673Z,99413.50
2022-11-24T02:31:55.554Z,99404.22
2022-11-24T02:35:06.870Z,99410.56
2022-11-24T02:38:15.963Z,99412.25
2022-11-24T02:41:21.557Z,99413.59
2022-11-24T02:44:29.541Z,99411.47
2022-11-24T02:47:32.143Z,99410.84
2022-11-24T02:50:34.915Z,99414.00
2022-11-24T02:53:37.508Z,99418.69
2022-11-24T02:56:40.145Z,99418.69
2022-11-24T02:59:42.690Z,99423.88
2022-11-24T03:02:45.428Z,99423.38
2022-11-24T03:05:48.521Z,99421.81
2022-11-24T03:08:51.302Z,99429.44
2022-11-24T03:11:54.522Z,99422.69
2022-11-24T03:14:57.530Z,99424.81
2022-11-24T03:17:59.970Z,99427.00
2022-11-24T03:21:03.583Z,99429.31
2022-11-24T03:24:05.995Z,99438.78
2022-11-24T03:27:08.975Z,99438.59
2022-11-24T03:30:11.991Z,99435.66
2022-11-24T03:33:14.660Z,99449.06
2022-11-24T03:36:17.304Z,99446.63
2022-11-24T03:39:20.053Z,99447.41
2022-11-24T03:42:22.948Z,99449.75
2022-11-24T03:48:48.558Z,99453.28
2022-11-24T03:51:51.529Z,99449.38
2022-11-24T03:54:53.929Z,99456.09
2022-11-24T03:57:57.665Z,99458.53
2022-11-24T04:01:00.635Z,99463.00
2022-11-24T04:04:03.483Z,99472.38
2022-11-24T04:07:05.964Z,99464.75
2022-11-24T04:10:08.891Z,99471.72
2022-11-24T04:13:14.330Z,99476.31
2022-11-24T04:16:17.206Z,99478.50
2022-11-24T04:19:19.637Z,99472.53
2022-11-24T04:22:22.334Z,99486.00
2022-11-24T04:25:24.774Z,99484.31
2022-11-24T04:28:27.416Z,99489.06
2022-11-24T04:31:30.398Z,99494.63
2022-11-24T04:34:33.535Z,99501.97
2022-11-24T04:37:36.428Z,99509.81
2022-11-24T04:40:39.319Z,99510.38
2022-11-24T04:43:41.786Z,99515.84
2022-11-24T04:46:44.780Z,99515.25
2022-11-24T04:49:49.026Z,99527.47
2022-11-24T04:52:52.786Z,99525.81
2022-11-24T04:55:55.163Z,99525.47
2022-11-24T04:58:58.016Z,99526.53
2022-11-24T05:02:00.518Z,99537.78
2022-11-24T05:05:03.801Z,99545.25
2022-11-24T05:08:06.387Z,99543.34
2022-11-24T05:11:08.953Z,99540.47
2022-11-24T05:14:11.786Z,99548.97
2022-11-24T05:17:15.157Z,99546.03
2022-11-24T05:20:18.280Z,99552.81
2022-11-24T05:23:20.937Z,99557.41
2022-11-24T05:26:23.409Z,99554.03
2022-11-24T05:29:26.280Z,99554.38
2022-11-24T05:32:28.954Z,99560.72
2022-11-24T05:35:32.268Z,99562.28
2022-11-24T05:38:35.823Z,99567.25
2022-11-24T05:41:38.942Z,99567.25
2022-11-24T05:44:41.542Z,99575.66
2022-11-24T05:47:44.542Z,99576.75
2022-11-24T05:50:53.687Z,99572.47
2022-11-24T05:53:56.678Z,99581.91
2022-11-24T05:56:59.148Z,99584.50
2022-11-24T06:00:02.370Z,99590.84
2022-11-24T06:03:15.132Z,99590.50
2022-11-24T06:06:17.808Z,99588.88
2022-11-24T06:09:20.535Z,99604.47
2022-11-24T06:12:23.178Z,99603.53
2022-11-24T06:15:25.951Z,99600.19
2022-11-24T06:18:28.669Z,99609.66
2022-11-24T06:21:31.834Z,99612.59
2022-11-24T06:24:34.642Z,99617.66
2022-11-24T06:27:37.340Z,99617.06
2022-11-24T06:30:39.899Z,99623.63
2022-11-24T06:33:42.521Z,99630.44
2022-11-24T06:36:45.103Z,99624.72
2022-11-24T06:39:48.504Z,99623.97
2022-11-24T06:42:52.304Z,99635.66
2022-11-24T06:45:55.068Z,99640.03
2022-11-24T06:48:59.756Z,99646.63
2022-11-24T06:52:02.443Z,99657.28
2022-11-24T06:55:05.403Z,99662.00
2022-11-24T06:58:08.110Z,99669.59
2022-11-24T07:01:15.983Z,99679.25
2022-11-24T07:04:19.656Z,99676.63
2022-11-24T07:07:22.326Z,99681.91
2022-11-24T07:10:24.970Z,99681.94
2022-11-24T07:13:27.728Z,99680.91
2022-11-24T07:16:31.910Z,99691.47
2022-11-24T07:19:34.663Z,99695.94
2022-11-24T07:22:37.271Z,99698.56
2022-11-24T07:25:39.972Z,99702.50
2022-11-24T07:28:43.923Z,99699.34
2022-11-24T07:31:46.586Z,99704.59
2022-11-24T07:34:49.145Z,99712.59
2022-11-24T07:37:55.349Z,99720.78
2022-11-24T07:41:09.840Z,99719.25
2022-11-24T07:44:12.375Z,99721.25
2022-11-24T07:47:15.013Z,99717.31
2022-11-24T07:50:17.899Z,99717.50
2022-11-24T07:53:20.728Z,99716.81
2022-11-24T07:56:23.402Z,99724.50
2022-11-24T07:59:26.400Z,99715.88
2022-11-24T08:02:28.914Z,99719.63
2022-11-24T08:05:31.671Z,99733.09
2022-11-24T08:08:34.183Z,99729.94
2022-11-24T08:11:37.006Z,99743.53
2022-11-24T08:14:39.511Z,99742.47
2022-11-24T08:17:42.482Z,99743.25
2022-11-24T08:20:45.201Z,99745.25
2022-11-24T08:23:47.950Z,99742.44
2022-11-24T08:26:50.400Z,99744.78
2022-11-24T08:29:53.440Z,99750.00
2022-11-24T08:32:58.575Z,99757.75
2022-11-24T08:36:06.532Z,99759.81
2022-11-24T08:39:12.008Z,99750.38
2022-11-24T08:42:14.785Z,99757.19
2022-11-24T08:45:24.738Z,99761.13
2022-11-24T08:48:28.818Z,99758.56
2022-11-24T08:51:31.506Z,99762.97
2022-11-24T08:54:35.044Z,99759.69
2022-11-24T08:57:38.110Z,99760.13
2022-11-24T09:00:40.747Z,99764.56
2022-11-24T09:03:50.390Z,99755.69
2022-11-24T09:06:53.748Z,99755.41
2022-11-24T09:09:56.604Z,99756.66
2022-11-24T09:12:59.395Z,99759.66
2022-11-24T09:16:08.449Z,99760.44
2022-11-24T09:19:11.318Z,99757.25
2022-11-24T09:22:14.184Z,99764.88
2022-11-24T09:25:17.445Z,99765.44
2022-11-24T09:28:19.899Z,99767.13
2022-11-24T09:31:25.671Z,99769.13
2022-11-24T09:34:28.508Z,99767.91
2022-11-24T09:37:33.033Z,99776.47
2022-11-24T09:40:35.727Z,99784.38
2022-11-24T09:43:46.064Z,99780.91
2022-11-24T09:47:01.518Z,99785.81
2022-11-24T09:50:18.922Z,99790.53
2022-11-24T09:53:21.322Z,99785.75
2022-11-24T09:56:27.923Z,99790.19
2022-11-24T09:59:31.084Z,99785.59
2022-11-24T10:02:35.039Z,99788.81
2022-11-24T10:05:42.655Z,99790.66
2022-11-24T10:09:17.374Z,99784.41
2022-11-24T10:12:37.596Z,99786.19
2022-11-24T10:16:00.354Z,99795.88
2022-11-24T10:19:22.840Z,99793.69
2022-11-24T10:22:48.302Z,99788.63
2022-11-24T10:25:57.904Z,99791.41
2022-11-24T10:29:09.694Z,99786.13
2022-11-24T10:32:30.719Z,99781.91
2022-11-24T10:35:46.457Z,99788.19
2022-11-24T10:39:32.146Z,99790.22
2022-11-24T10:42:37.618Z,99790.69
2022-11-24T10:45:41.763Z,99792.63
2022-11-24T10:48:57.005Z,99788.13
2022-11-24T10:52:15.701Z,99785.22
2022-11-24T10:55:21.591Z,99786.78
2022-11-24T10:58:37.733Z,99781.13
2022-11-24T11:01:42.111Z,99786.63
2022-11-24T11:04:46.514Z,99786.84
2022-11-24T11:07:51.083Z,99780.25
2022-11-24T11:11:46.035Z,99782.34
2022-11-24T11:14:51.646Z,99779.41
2022-11-24T11:18:02.691Z,99782.13
2022-11-24T11:21:07.277Z,99781.34
2022-11-24T11:24:19.202Z,99777.28
2022-11-24T11:27:26.044Z,99787.66
2022-11-24T11:34:04.693Z,99784.16
2022-11-24T11:37:13.539Z,99795.53
2022-11-24T11:40:27.203Z,99801.47
2022-11-24T11:43:36.016Z,99797.66
2022-11-24T11:46:39.053Z,99804.28
2022-11-24T11:49:42.488Z,99797.50
2022-11-24T11:53:17.384Z,99808.97
2022-11-24T11:56:40.537Z,99809.38
2022-11-24T12:00:12.658Z,99802.84
2022-11-24T12:03:33.641Z,99808.59
2022-11-24T12:06:58.100Z,99818.09
2022-11-24T12:10:18.203Z,99815.34
2022-11-24T12:13:44.124Z,99817.19
2022-11-24T12:17:07.975Z,99810.53
2022-11-24T12:20:21.639Z,99820.03
2022-11-24T12:23:45.640Z,99826.13
2022-11-24T12:26:55.127Z,99824.34
2022-11-24T12:30:03.825Z,99825.84
2022-11-24T12:33:12.306Z,99832.03
2022-11-24T12:36:35.004Z,99826.94
2022-11-24T12:39:49.514Z,99833.56
2022-11-24T12:43:09.749Z,99840.94
2022-11-24T12:46:37.598Z,99837.91
2022-11-24T12:50:05.081Z,99840.06
2022-11-24T12:53:23.293Z,99849.66
2022-11-24T12:56:55.964Z,99853.63
2022-11-24T13:00:09.433Z,99858.84
2022-11-24T13:03:24.307Z,99849.78
2022-11-24T13:06:45.865Z,99858.97
2022-11-24T13:10:46.904Z,99859.31
2022-11-24T13:14:06.843Z,99862.63
2022-11-24T13:17:43.233Z,99858.75
2022-11-24T13:20:55.011Z,99867.94
2022-11-24T13:24:03.046Z,99862.44
2022-11-24T13:27:15.519Z,99862.44
2022-11-24T13:30:33.416Z,99857.91
2022-11-24T13:33:37.022Z,99854.75
2022-11-24T13:36:53.081Z,99862.38
2022-11-24T13:39:57.092Z,99858.47
2022-11-24T13:43:02.140Z,99868.50
2022-11-24T13:46:05.082Z,99878.44
2022-11-24T13:49:14.285Z,99875.31
2022-11-24T13:52:51.441Z,99886.53
2022-11-24T13:56:00.221Z,99893.41
2022-11-24T13:59:17.313Z,99890.03
2022-11-24T14:02:23.554Z,99901.38
2022-11-24T14:05:52.859Z,99904.81
2022-11-24T14:08:56.114Z,99899.47
2022-11-24T14:12:19.239Z,99907.91
2022-11-24T14:15:29.489Z,99901.34
2022-11-24T14:18:37.439Z,99920.31
2022-11-24T14:21:41.638Z,99923.75
2022-11-24T14:24:47.285Z,99924.28
2022-11-24T14:27:50.777Z,99935.13
2022-11-24T14:31:23.276Z,99933.81
2022-11-24T14:34:28.828Z,99936.06
2022-11-24T14:37:31.639Z,99939.38
2022-11-24T14:40:43.329Z,99939.53
2022-11-24T14:43:46.125Z,99937.38
2022-11-24T14:46:48.858Z,99932.66
2022-11-24T14:49:52.878Z,99936.25
2022-11-24T14:52:57.935Z,99940.75
2022-11-24T14:56:23.740Z,99946.16
2022-11-24T14:59:29.346Z,99950.75
2022-11-24T15:02:52.113Z,99954.13
2022-11-24T15:06:00.525Z,99956.28
2022-11-24T15:09:03.396Z,99950.69
2022-11-24T15:12:10.093Z,99952.16
2022-11-24T15:15:22.734Z,99959.94
2022-11-24T15:18:36.595Z,99973.13
2022-11-24T15:21:39.775Z,99970.75
2022-11-24T15:24:54.234Z,99981.50
2022-11-24T15:27:57.185Z,99992.09
2022-11-24T15:31:01.720Z,99995.47
2022-11-24T15:34:04.761Z,100002.59
2022-11-24T15:37:10.251Z,100001.63
2022-11-24T15:40:13.757Z,100002.97
2022-11-24T15:43:31.535Z,100012.44
2022-11-24T15:46:38.305Z,100014.25
2022-11-24T15:49:40.875Z,100012.66
2022-11-24T15:52:44.534Z,100023.22
2022-11-24T15:55:47.848Z,100019.53
2022-11-24T15:58:50.655Z,100027.75
2022-11-24T16:01:53.218Z,100024.56
2022-11-24T16:04:59.428Z,100020.06
2022-11-24T16:08:02.054Z,100024.28
2022-11-24T16:11:04.799Z,100026.84
2022-11-24T16:14:07.281Z,100035.09
2022-11-24T16:17:10.122Z,100037.19
2022-11-24T16:20:13.012Z,100048.28
2022-11-24T16:23:15.744Z,100050.13
2022-11-24T16:26:18.442Z,100049.88
2022-11-24T16:29:23.743Z,100054.09
2022-11-24T16:32:26.515Z,100061.22
2022-11-24T16:35:29.415Z,100055.66
2022-11-24T16:38:32.260Z,100054.63
2022-11-24T16:41:35.030Z,100045.16
2022-11-24T16:44:37.588Z,100055.41
2022-11-24T16:47:41.935Z,100057.31
2022-11-24T16:50:44.694Z,100052.28
2022-11-24T16:53:47.921Z,100051.25
2022-11-24T16:56:50.434Z,100060.22
2022-11-24T16:59:53.727Z,100062.03
2022-11-24T17:02:56.553Z,100064.41
2022-11-24T17:06:00.832Z,100075.53
2022-11-24T17:09:03.778Z,100074.25
2022-11-24T17:12:06.615Z,100071.03
2022-11-24T17:15:31.706Z,100065.25
2022-11-24T17:18:32.621Z,100068.72
2022-11-24T17:21:35.334Z,100070.84
2022-11-24T17:24:38.427Z,100081.09
2022-11-24T17:27:41.715Z,100066.41
2022-11-24T17:30:44.551Z,100075.44
2022-11-24T17:33:48.138Z,100075.69
2022-11-24T17:36:51.339Z,100069.09
2022-11-24T17:40:12.945Z,100075.44
2022-11-24T17:43:16.935Z,100073.84
2022-11-24T17:46:20.128Z,100080.66
2022-11-24T17:49:23.638Z,100080.94
2022-11-24T17:52:26.432Z,100072.97
2022-11-24T17:55:29.220Z,100077.38
2022-11-24T17:58:37.184Z,100080.06
2022-11-24T18:01:42.586Z,100085.31
2022-11-24T18:04:45.751Z,100086.63
2022-11-24T18:07:48.607Z,100095.06
2022-11-24T18:10:51.596Z,100095.06
2022-11-24T18:14:00.171Z,100104.31
2022-11-24T18:17:03.450Z,100100.34
2022-11-24T18:20:10.834Z,100108.81
2022-11-24T18:23:15.131Z,100121.28
2022-11-24T18:26:17.990Z,100108.88
2022-11-24T18:29:22.831Z,100117.34
2022-11-24T18:32:26.110Z,100120.28
2022-11-24T18:35:29.317Z,100130.50
2022-11-24T18:38:34.944Z,100121.03
2022-11-24T18:41:39.660Z,100124.19
2022-11-24T18:44:42.889Z,100130.22
2022-11-24T18:47:45.578Z,100133.66
2022-11-24T18:50:52.992Z,100135.19
2022-11-24T18:53:58.238Z,100144.66
2022-11-24T18:57:03.576Z,100143.31
2022-11-24T19:00:07.648Z,100154.41
2022-11-24T19:03:10.589Z,100155.47
2022-11-24T19:06:29.045Z,100162.59
2022-11-24T19:09:33.024Z,100166.00
2022-11-24T19:12:36.044Z,100163.91
2022-11-24T19:15:39.170Z,100163.38
2022-11-24T19:18:41.967Z,100167.38
2022-11-24T19:21:45.345Z,100170.81
2022-11-24T19:24:50.077Z,100169.25
2022-11-24T19:27:53.123Z,100177.72
2022-11-24T19:31:08.366Z,100186.94
2022-11-24T19:34:11.322Z,100187.19
2022-11-24T19:37:14.846Z,100192.44
2022-11-24T19:40:18.787Z,100197.44
2022-11-24T19:43:21.560Z,100200.09
2022-11-24T19:46:27.578Z,100203.56
2022-11-24T19:49:30.588Z,100194.06
2022-11-24T19:52:33.615Z,100203.28
2022-11-24T19:55:36.400Z,100203.78
2022-11-24T19:58:40.456Z,100204.59
2022-11-24T20:01:43.783Z,100210.13
2022-11-24T20:04:46.899Z,100219.84
2022-11-24T20:07:49.866Z,100209.28
2022-11-24T20:10:53.043Z,100220.91
2022-11-24T20:13:56.697Z,100217.75
2022-11-24T20:17:00.378Z,100226.16
2022-11-24T20:20:03.286Z,100230.91
2022-11-24T20:23:06.454Z,100236.72
2022-11-24T20:26:15.551Z,100236.97
2022-11-24T20:29:18.712Z,100238.56
2022-11-24T20:32:21.790Z,100241.94
2022-11-24T20:35:24.627Z,100239.59
2022-11-24T20:38:29.306Z,100247.78
2022-11-24T20:41:34.431Z,100252.78
2022-11-24T20:44:37.749Z,100248.03
2022-11-24T20:47:40.864Z,100255.69
2022-11-24T20:50:48.307Z,100267.28
2022-11-24T20:53:56.853Z,100255.44
2022-11-24T20:56:59.720Z,100261.50
2022-11-24T21:00:02.645Z,100265.44
2022-11-24T21:03:07.145Z,100269.66
2022-11-24T21:06:10.266Z,100273.34
2022-11-24T21:09:13.122Z,100269.41
2022-11-24T21:12:17.950Z,100275.75
2022-11-24T21:15:21.283Z,100283.13
2022-11-24T21:18:24.254Z,100284.19
2022-11-24T21:21:33.958Z,100283.13
2022-11-24T21:24:37.138Z,100297.09
2022-11-24T21:27:40.167Z,100296.56
2022-11-24T21:30:42.955Z,100300.00
2022-11-24T21:33:50.503Z,100300.78
2022-11-24T21:36:53.329Z,100301.56
2022-11-24T21:39:56.026Z,100303.69
2022-11-24T21:42:59.804Z,100313.44
2022-11-24T21:46:04.695Z,100307.38
2022-11-24T21:49:07.524Z,100320.53
2022-11-24T21:52:09.932Z,100322.38
2022-11-24T21:55:12.743Z,100324.75
2022-11-24T21:58:15.546Z,100331.06
2022-11-24T22:01:20.748Z,100333.97
2022-11-24T22:04:23.558Z,100343.19
2022-11-24T22:07:26.132Z,100348.19
2022-11-24T22:10:29.822Z,100345.31
2022-11-24T22:13:32.895Z,100350.84
2022-11-24T22:16:35.452Z,100351.63
2022-11-24T22:19:38.414Z,100359.25
2022-11-24T22:22:40.891Z,100353.47
2022-11-24T22:25:43.808Z,100360.59
2022-11-24T22:28:47.340Z,100364.50
2022-11-24T22:31:54.445Z,100361.91
2022-11-24T22:34:57.307Z,100365.88
2022-11-24T22:37:59.794Z,100366.38
2022-11-24T22:41:08.226Z,100372.44
2022-11-24T22:44:10.879Z,100370.59
2022-11-24T22:47:13.412Z,100381.66
2022-11-24T22:50:16.030Z,100384.81
2022-11-24T22:53:18.531Z,100386.38
2022-11-24T22:56:22.011Z,100395.34
2022-11-24T22:59:24.751Z,100396.13
2022-11-24T23:02:28.575Z,100391.66
2022-11-24T23:05:33.205Z,100394.28
2022-11-24T23:08:36.388Z,100395.06
2022-11-24T23:11:40.507Z,100401.66
2022-11-24T23:14:43.291Z,100405.63
2022-11-24T23:17:45.722Z,100401.63
2022-11-24T23:20:48.696Z,100410.56
2022-11-24T23:23:52.168Z,100405.84
2022-11-24T23:26:55.312Z,100417.16
2022-11-24T23:29:58.178Z,100414.00
2022-11-24T23:33:00.851Z,100419.25
2022-11-24T23:36:07.062Z,100426.03
2022-11-24T23:39:12.652Z,100430.00
2022-11-24T23:42:15.486Z,100433.44
2022-11-24T23:45:18.420Z,100434.94
2022-11-24T23:48:20.877Z,100440.44
2022-11-24T23:51:28.555Z,100442.53
2022-11-24T23:54:31.072Z,100444.13
2022-11-24T23:57:33.821Z,100441.44
